sensor_id;sensor_type;location;lat;lon;timestamp;P1;P2;P0
72854;PMS7003;60991;51.278;22.550;2023-01-15T00:01:04;21.67;20.33;12.33
72854;PMS7003;60991;51.278;22.550;2023-01-15T00:02:35;17.67;17.33;13.33
72854;PMS7003;60991;51.278;22.550;2023-01-15T00:04:05;16.00;15.00;11.33
72854;PMS7003;60991;51.278;22.550;2023-01-15T00:05:35;21.00;15.00;12.25
72854;PMS7003;60991;51.278;22.550;2023-01-15T00:07:06;15.00;15.00;9.00
72854;PMS7003;60991;51.278;22.550;2023-01-15T00:08:36;15.00;14.33;12.00
72854;PMS7003;60991;51.278;22.550;2023-01-15T00:10:07;17.75;16.00;12.00
72854;PMS7003;60991;51.278;22.550;2023-01-15T00:11:37;13.50;9.50;8.50
72854;PMS7003;60991;51.278;22.550;2023-01-15T00:13:08;16.25;16.25;12.00
72854;PMS7003;60991;51.278;22.550;2023-01-15T00:14:38;16.00;12.33;9.67
72854;PMS7003;60991;51.278;22.550;2023-01-15T00:17:43;14.00;13.00;11.00
72854;PMS7003;60991;51.278;22.550;2023-01-15T00:19:13;14.67;14.00;11.00
72854;PMS7003;60991;51.278;22.550;2023-01-15T00:20:43;17.33;14.67;12.00
72854;PMS7003;60991;51.278;22.550;2023-01-15T00:22:14;15.67;14.33;11.00
72854;PMS7003;60991;51.278;22.550;2023-01-15T00:23:44;19.75;18.50;13.50
72854;PMS7003;60991;51.278;22.550;2023-01-15T00:25:14;19.75;16.50;10.50
72854;PMS7003;60991;51.278;22.550;2023-01-15T00:26:45;13.50;13.25;11.00
72854;PMS7003;60991;51.278;22.550;2023-01-15T00:28:15;15.25;13.50;10.00
72854;PMS7003;60991;51.278;22.550;2023-01-15T00:29:45;20.00;20.00;12.67
72854;PMS7003;60991;51.278;22.550;2023-01-15T00:31:15;15.25;13.00;9.25
72854;PMS7003;60991;51.278;22.550;2023-01-15T00:32:46;13.33;12.00;11.00
72854;PMS7003;60991;51.278;22.550;2023-01-15T00:34:16;16.00;13.00;11.00
72854;PMS7003;60991;51.278;22.550;2023-01-15T00:35:46;16.50;15.75;9.50
72854;PMS7003;60991;51.278;22.550;2023-01-15T00:37:16;15.00;15.00;12.00
72854;PMS7003;60991;51.278;22.550;2023-01-15T00:38:47;27.00;17.33;12.00
72854;PMS7003;60991;51.278;22.550;2023-01-15T00:40:17;19.00;15.33;12.00
72854;PMS7003;60991;51.278;22.550;2023-01-15T00:41:49;23.25;19.00;12.00
72854;PMS7003;60991;51.278;22.550;2023-01-15T00:43:19;16.75;14.00;10.50
72854;PMS7003;60991;51.278;22.550;2023-01-15T00:44:49;16.00;15.33;9.00
72854;PMS7003;60991;51.278;22.550;2023-01-15T00:46:19;12.33;12.33;9.67
72854;PMS7003;60991;51.278;22.550;2023-01-15T00:47:50;15.00;11.67;9.00
72854;PMS7003;60991;51.278;22.550;2023-01-15T00:49:20;15.00;13.00;12.00
72854;PMS7003;60991;51.278;22.550;2023-01-15T00:50:50;21.50;17.75;11.75
72854;PMS7003;60991;51.278;22.550;2023-01-15T00:52:20;18.00;14.25;10.25
72854;PMS7003;60991;51.278;22.550;2023-01-15T00:53:51;20.50;16.00;12.25
72854;PMS7003;60991;51.278;22.550;2023-01-15T00:55:21;13.67;12.00;9.00
72854;PMS7003;60991;51.278;22.550;2023-01-15T00:56:51;19.33;13.00;9.67
72854;PMS7003;60991;51.278;22.550;2023-01-15T00:58:21;19.00;15.00;10.33
72854;PMS7003;60991;51.278;22.550;2023-01-15T00:59:52;17.00;13.33;10.33
72854;PMS7003;60991;51.278;22.550;2023-01-15T01:01:22;10.33;8.33;5.33
72854;PMS7003;60991;51.278;22.550;2023-01-15T01:02:52;18.75;17.75;10.50
72854;PMS7003;60991;51.278;22.550;2023-01-15T01:04:22;18.00;16.00;11.00
72854;PMS7003;60991;51.278;22.550;2023-01-15T01:05:53;20.00;13.00;9.00
72854;PMS7003;60991;51.278;22.550;2023-01-15T01:07:28;13.00;12.75;10.25
72854;PMS7003;60991;51.278;22.550;2023-01-15T01:08:58;17.50;14.50;9.25
72854;PMS7003;60991;51.278;22.550;2023-01-15T01:10:29;20.67;13.67;8.00
72854;PMS7003;60991;51.278;22.550;2023-01-15T01:11:59;15.75;11.75;8.75
72854;PMS7003;60991;51.278;22.550;2023-01-15T01:13:29;14.00;11.00;8.00
72854;PMS7003;60991;51.278;22.550;2023-01-15T01:15:00;14.00;11.50;10.00
72854;PMS7003;60991;51.278;22.550;2023-01-15T01:16:34;12.00;10.00;7.75
72854;PMS7003;60991;51.278;22.550;2023-01-15T01:18:06;21.25;16.25;9.00
72854;PMS7003;60991;51.278;22.550;2023-01-15T01:19:36;9.67;8.67;6.33
72854;PMS7003;60991;51.278;22.550;2023-01-15T01:21:06;14.00;11.75;8.00
72854;PMS7003;60991;51.278;22.550;2023-01-15T01:22:37;14.67;11.00;8.00
72854;PMS7003;60991;51.278;22.550;2023-01-15T01:24:07;15.33;13.33;11.67
72854;PMS7003;60991;51.278;22.550;2023-01-15T01:25:40;18.25;13.25;8.50
72854;PMS7003;60991;51.278;22.550;2023-01-15T01:27:10;12.33;12.00;9.67
72854;PMS7003;60991;51.278;22.550;2023-01-15T01:28:40;11.50;8.50;7.50
72854;PMS7003;60991;51.278;22.550;2023-01-15T01:30:11;13.00;11.00;8.00
72854;PMS7003;60991;51.278;22.550;2023-01-15T01:31:43;13.75;12.00;9.00
72854;PMS7003;60991;51.278;22.550;2023-01-15T01:33:13;16.50;12.00;8.25
72854;PMS7003;60991;51.278;22.550;2023-01-15T01:34:43;12.67;12.00;9.00
72854;PMS7003;60991;51.278;22.550;2023-01-15T01:36:14;12.33;9.00;7.33
72854;PMS7003;60991;51.278;22.550;2023-01-15T01:37:48;18.50;14.00;8.75
72854;PMS7003;60991;51.278;22.550;2023-01-15T01:39:21;13.25;12.00;9.00
72854;PMS7003;60991;51.278;22.550;2023-01-15T01:40:51;12.00;11.67;8.67
72854;PMS7003;60991;51.278;22.550;2023-01-15T01:42:21;17.33;12.67;6.67
72854;PMS7003;60991;51.278;22.550;2023-01-15T01:43:59;9.25;9.25;7.50
72854;PMS7003;60991;51.278;22.550;2023-01-15T01:45:31;17.25;12.75;10.50
72854;PMS7003;60991;51.278;22.550;2023-01-15T01:47:04;12.00;10.00;8.25
72854;PMS7003;60991;51.278;22.550;2023-01-15T01:48:36;17.75;11.75;8.25
72854;PMS7003;60991;51.278;22.550;2023-01-15T01:50:08;14.00;12.25;8.00
72854;PMS7003;60991;51.278;22.550;2023-01-15T01:51:42;12.50;9.75;7.75
72854;PMS7003;60991;51.278;22.550;2023-01-15T01:53:19;17.25;13.75;9.00
72854;PMS7003;60991;51.278;22.550;2023-01-15T01:54:52;14.00;11.50;8.75
72854;PMS7003;60991;51.278;22.550;2023-01-15T01:56:22;11.00;11.00;8.00
72854;PMS7003;60991;51.278;22.550;2023-01-15T01:57:54;9.00;9.00;8.00
72854;PMS7003;60991;51.278;22.550;2023-01-15T01:59:28;13.00;13.00;8.75
72854;PMS7003;60991;51.278;22.550;2023-01-15T02:00:58;12.50;12.50;8.25
72854;PMS7003;60991;51.278;22.550;2023-01-15T02:02:30;10.25;8.50;8.00
72854;PMS7003;60991;51.278;22.550;2023-01-15T02:04:00;13.00;9.00;8.00
72854;PMS7003;60991;51.278;22.550;2023-01-15T02:05:33;9.00;9.00;8.00
72854;PMS7003;60991;51.278;22.550;2023-01-15T02:07:06;16.00;11.50;6.50
72854;PMS7003;60991;51.278;22.550;2023-01-15T02:08:37;14.75;9.00;7.00
72854;PMS7003;60991;51.278;22.550;2023-01-15T02:10:12;10.00;8.00;5.50
72854;PMS7003;60991;51.278;22.550;2023-01-15T02:11:43;15.25;11.25;8.00
72854;PMS7003;60991;51.278;22.550;2023-01-15T02:13:15;11.00;9.00;6.25
72854;PMS7003;60991;51.278;22.550;2023-01-15T02:16:46;8.25;7.00;5.00
72854;PMS7003;60991;51.278;22.550;2023-01-15T02:18:23;13.50;12.25;8.75
72854;PMS7003;60991;51.278;22.550;2023-01-15T02:20:15;12.75;9.25;7.50
72854;PMS7003;60991;51.278;22.550;2023-01-15T02:22:03;13.00;8.00;7.00
72854;PMS7003;60991;51.278;22.550;2023-01-15T02:25:52;8.00;8.00;5.00
72854;PMS7003;60991;51.278;22.550;2023-01-15T02:27:31;15.50;12.25;8.75
72854;PMS7003;60991;51.278;22.550;2023-01-15T02:29:02;16.25;10.00;6.75
72854;PMS7003;60991;51.278;22.550;2023-01-15T02:30:42;16.00;10.50;7.25
72854;PMS7003;60991;51.278;22.550;2023-01-15T02:32:25;17.75;11.00;7.50
72854;PMS7003;60991;51.278;22.550;2023-01-15T02:34:09;8.50;7.50;6.25
72854;PMS7003;60991;51.278;22.550;2023-01-15T02:35:57;15.75;11.75;8.00
72854;PMS7003;60991;51.278;22.550;2023-01-15T02:37:29;15.50;8.75;6.25
72854;PMS7003;60991;51.278;22.550;2023-01-15T02:39:06;14.00;9.00;8.25
72854;PMS7003;60991;51.278;22.550;2023-01-15T02:40:40;15.75;11.00;7.75
72854;PMS7003;60991;51.278;22.550;2023-01-15T02:42:12;13.25;6.25;4.00
72854;PMS7003;60991;51.278;22.550;2023-01-15T02:43:46;9.50;9.50;7.00
72854;PMS7003;60991;51.278;22.550;2023-01-15T02:45:22;13.25;10.50;7.75
72854;PMS7003;60991;51.278;22.550;2023-01-15T02:46:57;13.25;11.75;9.00
72854;PMS7003;60991;51.278;22.550;2023-01-15T02:48:29;8.00;8.00;6.50
72854;PMS7003;60991;51.278;22.550;2023-01-15T02:50:06;15.75;8.75;7.75
72854;PMS7003;60991;51.278;22.550;2023-01-15T02:51:59;12.00;11.00;7.25
72854;PMS7003;60991;51.278;22.550;2023-01-15T02:53:34;6.25;4.75;4.75
72854;PMS7003;60991;51.278;22.550;2023-01-15T02:55:13;10.50;8.50;6.50
72854;PMS7003;60991;51.278;22.550;2023-01-15T02:56:47;11.00;9.00;8.00
72854;PMS7003;60991;51.278;22.550;2023-01-15T02:58:19;12.00;9.00;7.50
72854;PMS7003;60991;51.278;22.550;2023-01-15T02:59:53;11.75;10.50;6.50
72854;PMS7003;60991;51.278;22.550;2023-01-15T03:01:31;14.00;10.25;8.50
72854;PMS7003;60991;51.278;22.550;2023-01-15T03:03:09;11.75;11.75;9.50
72854;PMS7003;60991;51.278;22.550;2023-01-15T03:04:46;11.00;8.75;7.00
72854;PMS7003;60991;51.278;22.550;2023-01-15T03:06:32;7.75;7.75;5.50
72854;PMS7003;60991;51.278;22.550;2023-01-15T03:08:10;18.50;9.50;6.25
72854;PMS7003;60991;51.278;22.550;2023-01-15T03:09:41;12.25;8.50;5.25
72854;PMS7003;60991;51.278;22.550;2023-01-15T03:11:12;13.25;10.00;8.50
72854;PMS7003;60991;51.278;22.550;2023-01-15T03:12:58;21.00;12.25;8.50
72854;PMS7003;60991;51.278;22.550;2023-01-15T03:14:34;8.25;8.25;7.50
72854;PMS7003;60991;51.278;22.550;2023-01-15T03:16:21;11.75;11.75;8.50
72854;PMS7003;60991;51.278;22.550;2023-01-15T03:17:56;12.50;9.50;7.75
72854;PMS7003;60991;51.278;22.550;2023-01-15T03:21:02;9.00;8.25;7.50
72854;PMS7003;60991;51.278;22.550;2023-01-15T03:22:38;11.25;9.00;8.00
72854;PMS7003;60991;51.278;22.550;2023-01-15T03:24:17;8.00;8.00;6.00
72854;PMS7003;60991;51.278;22.550;2023-01-15T03:25:53;10.00;10.00;6.00
72854;PMS7003;60991;51.278;22.550;2023-01-15T03:27:23;9.75;9.00;6.00
72854;PMS7003;60991;51.278;22.550;2023-01-15T03:28:54;10.25;8.75;5.25
72854;PMS7003;60991;51.278;22.550;2023-01-15T03:30:25;12.25;8.00;6.00
72854;PMS7003;60991;51.278;22.550;2023-01-15T03:31:55;10.50;8.00;6.00
72854;PMS7003;60991;51.278;22.550;2023-01-15T03:33:27;9.50;5.50;5.00
72854;PMS7003;60991;51.278;22.550;2023-01-15T03:34:58;14.50;8.50;5.75
72854;PMS7003;60991;51.278;22.550;2023-01-15T03:36:29;11.00;8.67;6.33
72854;PMS7003;60991;51.278;22.550;2023-01-15T03:37:59;11.75;8.25;6.25
72854;PMS7003;60991;51.278;22.550;2023-01-15T03:39:30;9.75;9.00;6.25
72854;PMS7003;60991;51.278;22.550;2023-01-15T03:41:05;10.00;7.75;6.50
72854;PMS7003;60991;51.278;22.550;2023-01-15T03:45:56;7.75;7.75;5.25
72854;PMS7003;60991;51.278;22.550;2023-01-15T03:47:34;9.00;9.00;7.00
72854;PMS7003;60991;51.278;22.550;2023-01-15T03:49:13;10.00;9.50;7.75
72854;PMS7003;60991;51.278;22.550;2023-01-15T03:51:11;9.25;7.75;7.00
72854;PMS7003;60991;51.278;22.550;2023-01-15T03:54:24;10.50;10.50;8.00
72854;PMS7003;60991;51.278;22.550;2023-01-15T03:56:15;4.00;2.50;2.00
72854;PMS7003;60991;51.278;22.550;2023-01-15T03:57:50;9.00;9.00;6.75
72854;PMS7003;60991;51.278;22.550;2023-01-15T03:59:36;10.50;8.25;7.75
72854;PMS7003;60991;51.278;22.550;2023-01-15T04:01:15;9.00;8.00;6.50
72854;PMS7003;60991;51.278;22.550;2023-01-15T04:02:50;5.75;5.00;4.00
72854;PMS7003;60991;51.278;22.550;2023-01-15T04:04:24;8.00;8.00;4.75
72854;PMS7003;60991;51.278;22.550;2023-01-15T04:05:56;8.00;5.25;5.00
72854;PMS7003;60991;51.278;22.550;2023-01-15T04:07:28;16.00;12.00;8.00
72854;PMS7003;60991;51.278;22.550;2023-01-15T04:09:00;10.25;8.50;6.75
72854;PMS7003;60991;51.278;22.550;2023-01-15T04:10:34;10.00;8.50;6.25
72854;PMS7003;60991;51.278;22.550;2023-01-15T04:12:04;13.25;8.25;5.00
72854;PMS7003;60991;51.278;22.550;2023-01-15T04:13:35;14.75;11.50;8.00
72854;PMS7003;60991;51.278;22.550;2023-01-15T04:15:05;14.50;6.25;4.25
72854;PMS7003;60991;51.278;22.550;2023-01-15T04:16:36;12.50;9.75;7.00
72854;PMS7003;60991;51.278;22.550;2023-01-15T04:18:06;6.33;6.33;5.00
72854;PMS7003;60991;51.278;22.550;2023-01-15T04:19:36;9.00;9.00;6.33
72854;PMS7003;60991;51.278;22.550;2023-01-15T04:21:06;16.00;8.33;6.00
72854;PMS7003;60991;51.278;22.550;2023-01-15T04:22:37;5.33;5.00;4.33
72854;PMS7003;60991;51.278;22.550;2023-01-15T04:24:07;8.75;7.50;5.50
72854;PMS7003;60991;51.278;22.550;2023-01-15T04:25:37;11.33;7.33;6.00
72854;PMS7003;60991;51.278;22.550;2023-01-15T04:27:08;8.75;6.50;6.00
72854;PMS7003;60991;51.278;22.550;2023-01-15T04:28:38;11.67;5.67;5.33
72854;PMS7003;60991;51.278;22.550;2023-01-15T04:30:09;8.50;6.75;5.25
72854;PMS7003;60991;51.278;22.550;2023-01-15T04:31:40;9.50;5.00;4.50
72854;PMS7003;60991;51.278;22.550;2023-01-15T04:33:10;15.33;9.00;8.00
72854;PMS7003;60991;51.278;22.550;2023-01-15T04:34:40;12.50;12.00;8.50
72854;PMS7003;60991;51.278;22.550;2023-01-15T04:36:10;10.33;10.00;8.00
72854;PMS7003;60991;51.278;22.550;2023-01-15T04:37:41;12.67;8.00;5.67
72854;PMS7003;60991;51.278;22.550;2023-01-15T04:39:11;16.00;11.75;8.50
72854;PMS7003;60991;51.278;22.550;2023-01-15T04:40:41;15.33;11.67;6.33
72854;PMS7003;60991;51.278;22.550;2023-01-15T04:42:12;8.00;8.00;6.33
72854;PMS7003;60991;51.278;22.550;2023-01-15T04:43:43;8.50;8.00;5.00
72854;PMS7003;60991;51.278;22.550;2023-01-15T04:45:13;9.67;9.67;8.00
72854;PMS7003;60991;51.278;22.550;2023-01-15T04:46:44;11.75;8.75;5.50
72854;PMS7003;60991;51.278;22.550;2023-01-15T04:48:15;8.50;5.50;5.00
72854;PMS7003;60991;51.278;22.550;2023-01-15T04:49:45;10.33;8.33;6.00
72854;PMS7003;60991;51.278;22.550;2023-01-15T04:51:16;9.50;6.00;5.25
72854;PMS7003;60991;51.278;22.550;2023-01-15T04:52:46;8.50;8.25;6.25
72854;PMS7003;60991;51.278;22.550;2023-01-15T04:54:17;12.00;9.00;6.00
72854;PMS7003;60991;51.278;22.550;2023-01-15T04:55:47;13.25;8.00;6.25
72854;PMS7003;60991;51.278;22.550;2023-01-15T04:57:18;15.00;7.67;5.33
72854;PMS7003;60991;51.278;22.550;2023-01-15T04:58:48;9.00;9.00;5.00
72854;PMS7003;60991;51.278;22.550;2023-01-15T05:00:18;13.00;11.33;8.00
72854;PMS7003;60991;51.278;22.550;2023-01-15T05:01:49;11.50;8.00;6.25
72854;PMS7003;60991;51.278;22.550;2023-01-15T05:03:20;9.25;7.75;5.50
72854;PMS7003;60991;51.278;22.550;2023-01-15T05:04:50;8.00;8.00;5.25
72854;PMS7003;60991;51.278;22.550;2023-01-15T05:06:20;11.33;9.00;6.00
72854;PMS7003;60991;51.278;22.550;2023-01-15T05:07:50;13.67;7.00;4.67
72854;PMS7003;60991;51.278;22.550;2023-01-15T05:09:21;11.25;9.00;6.75
72854;PMS7003;60991;51.278;22.550;2023-01-15T05:10:51;7.50;6.00;5.00
72854;PMS7003;60991;51.278;22.550;2023-01-15T05:12:22;11.00;9.67;6.00
72854;PMS7003;60991;51.278;22.550;2023-01-15T05:13:52;9.50;8.25;6.25
72854;PMS7003;60991;51.278;22.550;2023-01-15T05:15:23;11.25;9.00;7.50
72854;PMS7003;60991;51.278;22.550;2023-01-15T05:16:53;11.50;10.75;6.50
72854;PMS7003;60991;51.278;22.550;2023-01-15T05:18:24;14.33;8.67;6.00
72854;PMS7003;60991;51.278;22.550;2023-01-15T05:19:54;7.25;5.00;4.25
72854;PMS7003;60991;51.278;22.550;2023-01-15T05:21:29;7.67;6.00;5.00
72854;PMS7003;60991;51.278;22.550;2023-01-15T05:23:01;11.25;8.25;7.75
72854;PMS7003;60991;51.278;22.550;2023-01-15T05:24:31;11.67;6.33;6.33
72854;PMS7003;60991;51.278;22.550;2023-01-15T05:26:02;13.33;8.33;5.00
72854;PMS7003;60991;51.278;22.550;2023-01-15T05:27:32;12.00;10.00;6.25
72854;PMS7003;60991;51.278;22.550;2023-01-15T05:29:03;6.50;5.75;4.75
72854;PMS7003;60991;51.278;22.550;2023-01-15T05:30:33;10.75;8.00;6.25
72854;PMS7003;60991;51.278;22.550;2023-01-15T05:32:04;14.75;12.00;7.25
72854;PMS7003;60991;51.278;22.550;2023-01-15T05:33:35;11.50;9.50;7.00
72854;PMS7003;60991;51.278;22.550;2023-01-15T05:35:05;9.25;8.00;6.50
72854;PMS7003;60991;51.278;22.550;2023-01-15T05:36:36;7.75;7.75;5.75
72854;PMS7003;60991;51.278;22.550;2023-01-15T05:38:06;12.67;8.33;5.67
72854;PMS7003;60991;51.278;22.550;2023-01-15T05:39:36;9.00;9.00;5.33
72854;PMS7003;60991;51.278;22.550;2023-01-15T05:41:07;11.67;9.00;6.00
72854;PMS7003;60991;51.278;22.550;2023-01-15T05:42:40;10.00;8.50;6.00
72854;PMS7003;60991;51.278;22.550;2023-01-15T05:44:10;12.33;8.00;5.67
72854;PMS7003;60991;51.278;22.550;2023-01-15T05:45:42;13.00;10.00;5.75
72854;PMS7003;60991;51.278;22.550;2023-01-15T05:47:12;9.00;6.33;6.00
72854;PMS7003;60991;51.278;22.550;2023-01-15T05:48:42;13.00;8.00;6.00
72854;PMS7003;60991;51.278;22.550;2023-01-15T05:50:12;8.50;5.25;4.75
72854;PMS7003;60991;51.278;22.550;2023-01-15T05:51:43;13.00;8.00;6.33
72854;PMS7003;60991;51.278;22.550;2023-01-15T05:53:14;9.50;8.50;5.00
72854;PMS7003;60991;51.278;22.550;2023-01-15T05:54:44;9.67;6.33;4.67
72854;PMS7003;60991;51.278;22.550;2023-01-15T05:56:14;8.33;8.33;6.00
72854;PMS7003;60991;51.278;22.550;2023-01-15T05:57:45;12.33;8.00;6.00
72854;PMS7003;60991;51.278;22.550;2023-01-15T05:59:15;16.00;8.67;5.00
72854;PMS7003;60991;51.278;22.550;2023-01-15T06:00:48;13.25;6.25;5.00
72854;PMS7003;60991;51.278;22.550;2023-01-15T06:02:18;10.33;8.67;5.00
72854;PMS7003;60991;51.278;22.550;2023-01-15T06:03:49;14.00;6.25;5.25
72854;PMS7003;60991;51.278;22.550;2023-01-15T06:05:19;9.67;9.00;5.33
72854;PMS7003;60991;51.278;22.550;2023-01-15T06:06:50;12.67;8.33;5.00
72854;PMS7003;60991;51.278;22.550;2023-01-15T06:08:21;11.75;6.50;5.50
72854;PMS7003;60991;51.278;22.550;2023-01-15T06:09:52;7.25;6.25;5.00
72854;PMS7003;60991;51.278;22.550;2023-01-15T06:11:22;9.00;5.00;4.00
72854;PMS7003;60991;51.278;22.550;2023-01-15T06:12:53;12.00;7.50;6.00
72854;PMS7003;60991;51.278;22.550;2023-01-15T06:14:24;11.00;8.00;6.00
72854;PMS7003;60991;51.278;22.550;2023-01-15T06:15:54;10.00;7.75;5.25
72854;PMS7003;60991;51.278;22.550;2023-01-15T06:17:25;6.67;4.33;3.33
72854;PMS7003;60991;51.278;22.550;2023-01-15T06:18:58;8.67;7.33;4.67
72854;PMS7003;60991;51.278;22.550;2023-01-15T06:20:30;9.75;6.00;5.00
72854;PMS7003;60991;51.278;22.550;2023-01-15T06:22:00;5.00;5.00;4.50
72854;PMS7003;60991;51.278;22.550;2023-01-15T06:23:30;13.00;9.00;6.00
72854;PMS7003;60991;51.278;22.550;2023-01-15T06:25:00;15.25;9.00;6.50
72854;PMS7003;60991;51.278;22.550;2023-01-15T06:26:30;6.00;6.00;5.00
72854;PMS7003;60991;51.278;22.550;2023-01-15T06:28:05;12.50;8.25;6.00
72854;PMS7003;60991;51.278;22.550;2023-01-15T06:29:36;11.00;6.50;5.00
72854;PMS7003;60991;51.278;22.550;2023-01-15T06:31:08;5.00;5.00;4.00
72854;PMS7003;60991;51.278;22.550;2023-01-15T06:32:40;7.00;7.00;5.50
72854;PMS7003;60991;51.278;22.550;2023-01-15T06:34:10;8.25;5.00;5.00
72854;PMS7003;60991;51.278;22.550;2023-01-15T06:35:40;8.00;5.00;4.00
72854;PMS7003;60991;51.278;22.550;2023-01-15T06:37:11;8.00;6.67;5.00
72854;PMS7003;60991;51.278;22.550;2023-01-15T06:38:41;8.00;7.33;5.00
72854;PMS7003;60991;51.278;22.550;2023-01-15T06:40:12;7.25;5.00;4.00
72854;PMS7003;60991;51.278;22.550;2023-01-15T06:41:46;14.50;5.75;5.00
72854;PMS7003;60991;51.278;22.550;2023-01-15T06:43:16;6.00;5.00;4.00
72854;PMS7003;60991;51.278;22.550;2023-01-15T06:44:46;5.00;4.33;4.00
72854;PMS7003;60991;51.278;22.550;2023-01-15T06:46:16;10.00;6.67;5.00
72854;PMS7003;60991;51.278;22.550;2023-01-15T06:47:47;9.33;7.33;5.00
72854;PMS7003;60991;51.278;22.550;2023-01-15T06:49:17;8.00;6.50;5.50
72854;PMS7003;60991;51.278;22.550;2023-01-15T06:50:47;6.67;6.67;6.00
72854;PMS7003;60991;51.278;22.550;2023-01-15T06:52:17;9.67;8.00;5.00
72854;PMS7003;60991;51.278;22.550;2023-01-15T06:53:48;9.00;8.00;5.00
72854;PMS7003;60991;51.278;22.550;2023-01-15T06:55:18;4.67;2.00;1.00
72854;PMS7003;60991;51.278;22.550;2023-01-15T06:56:48;11.33;5.33;4.00
72854;PMS7003;60991;51.278;22.550;2023-01-15T06:58:18;9.50;6.00;5.75
72854;PMS7003;60991;51.278;22.550;2023-01-15T06:59:48;5.67;5.00;4.00
72854;PMS7003;60991;51.278;22.550;2023-01-15T07:01:19;10.50;5.75;5.25
72854;PMS7003;60991;51.278;22.550;2023-01-15T07:02:49;11.67;8.33;6.00
72854;PMS7003;60991;51.278;22.550;2023-01-15T07:04:20;7.33;6.00;5.00
72854;PMS7003;60991;51.278;22.550;2023-01-15T07:05:50;4.33;4.33;4.00
72854;PMS7003;60991;51.278;22.550;2023-01-15T07:07:20;4.33;1.00;1.00
72854;PMS7003;60991;51.278;22.550;2023-01-15T07:08:51;12.75;8.00;5.50
72854;PMS7003;60991;51.278;22.550;2023-01-15T07:10:21;7.00;7.00;5.25
72854;PMS7003;60991;51.278;22.550;2023-01-15T07:11:52;6.00;6.00;5.00
72854;PMS7003;60991;51.278;22.550;2023-01-15T07:13:22;8.50;6.00;5.00
72854;PMS7003;60991;51.278;22.550;2023-01-15T07:14:52;6.00;4.75;4.00
72854;PMS7003;60991;51.278;22.550;2023-01-15T07:16:22;7.25;5.50;5.00
72854;PMS7003;60991;51.278;22.550;2023-01-15T07:17:53;10.00;8.33;5.00
72854;PMS7003;60991;51.278;22.550;2023-01-15T07:19:24;6.50;6.00;4.25
72854;PMS7003;60991;51.278;22.550;2023-01-15T07:20:57;9.25;5.25;5.00
72854;PMS7003;60991;51.278;22.550;2023-01-15T07:22:27;8.50;4.50;3.50
72854;PMS7003;60991;51.278;22.550;2023-01-15T07:23:58;7.33;7.33;5.00
72854;PMS7003;60991;51.278;22.550;2023-01-15T07:25:29;8.75;6.00;6.00
72854;PMS7003;60991;51.278;22.550;2023-01-15T07:26:59;6.00;6.00;5.00
72854;PMS7003;60991;51.278;22.550;2023-01-15T07:28:29;7.00;5.50;4.75
72854;PMS7003;60991;51.278;22.550;2023-01-15T07:29:59;5.33;5.33;4.00
72854;PMS7003;60991;51.278;22.550;2023-01-15T07:31:30;12.00;6.67;5.00
72854;PMS7003;60991;51.278;22.550;2023-01-15T07:33:00;8.25;6.50;4.75
72854;PMS7003;60991;51.278;22.550;2023-01-15T07:34:30;7.75;5.75;4.50
72854;PMS7003;60991;51.278;22.550;2023-01-15T07:36:01;5.67;5.67;4.67
72854;PMS7003;60991;51.278;22.550;2023-01-15T07:37:32;7.00;5.75;4.75
72854;PMS7003;60991;51.278;22.550;2023-01-15T07:39:05;12.00;9.33;5.67
72854;PMS7003;60991;51.278;22.550;2023-01-15T07:40:37;6.75;5.00;4.75
72854;PMS7003;60991;51.278;22.550;2023-01-15T07:42:08;9.25;6.00;5.00
72854;PMS7003;60991;51.278;22.550;2023-01-15T07:43:39;7.50;5.00;4.00
72854;PMS7003;60991;51.278;22.550;2023-01-15T07:45:09;8.00;8.00;4.67
72854;PMS7003;60991;51.278;22.550;2023-01-15T07:46:40;8.50;7.00;5.00
72854;PMS7003;60991;51.278;22.550;2023-01-15T07:48:10;10.67;6.67;5.00
72854;PMS7003;60991;51.278;22.550;2023-01-15T07:49:41;6.00;6.00;5.25
72854;PMS7003;60991;51.278;22.550;2023-01-15T07:51:11;6.50;5.25;5.00
72854;PMS7003;60991;51.278;22.550;2023-01-15T07:52:42;5.00;5.00;4.00
72854;PMS7003;60991;51.278;22.550;2023-01-15T07:54:12;8.00;8.00;5.00
72854;PMS7003;60991;51.278;22.550;2023-01-15T07:55:42;7.33;5.00;4.33
72854;PMS7003;60991;51.278;22.550;2023-01-15T07:57:13;8.00;5.67;4.67
72854;PMS7003;60991;51.278;22.550;2023-01-15T07:58:47;7.50;5.75;4.50
72854;PMS7003;60991;51.278;22.550;2023-01-15T08:00:21;8.67;6.00;5.00
72854;PMS7003;60991;51.278;22.550;2023-01-15T08:01:52;8.75;5.50;4.50
72854;PMS7003;60991;51.278;22.550;2023-01-15T08:03:22;6.00;6.00;5.00
72854;PMS7003;60991;51.278;22.550;2023-01-15T08:04:53;10.00;8.00;5.00
72854;PMS7003;60991;51.278;22.550;2023-01-15T08:06:23;8.67;5.33;4.00
72854;PMS7003;60991;51.278;22.550;2023-01-15T08:07:53;7.33;6.00;5.00
72854;PMS7003;60991;51.278;22.550;2023-01-15T08:09:23;5.00;5.00;4.33
72854;PMS7003;60991;51.278;22.550;2023-01-15T08:10:53;13.33;8.00;5.67
72854;PMS7003;60991;51.278;22.550;2023-01-15T08:12:24;8.00;7.33;5.67
72854;PMS7003;60991;51.278;22.550;2023-01-15T08:13:54;8.33;6.67;5.00
72854;PMS7003;60991;51.278;22.550;2023-01-15T08:15:24;9.75;5.50;4.50
72854;PMS7003;60991;51.278;22.550;2023-01-15T08:16:55;5.50;5.50;5.00
72854;PMS7003;60991;51.278;22.550;2023-01-15T08:18:25;13.00;8.25;6.25
72854;PMS7003;60991;51.278;22.550;2023-01-15T08:19:55;7.00;7.00;5.00
72854;PMS7003;60991;51.278;22.550;2023-01-15T08:21:26;12.25;7.00;4.75
72854;PMS7003;60991;51.278;22.550;2023-01-15T08:22:56;8.00;6.75;4.75
72854;PMS7003;60991;51.278;22.550;2023-01-15T08:24:29;5.75;5.75;4.50
72854;PMS7003;60991;51.278;22.550;2023-01-15T08:25:59;10.25;7.00;5.25
72854;PMS7003;60991;51.278;22.550;2023-01-15T08:27:30;10.00;7.25;5.50
72854;PMS7003;60991;51.278;22.550;2023-01-15T08:29:00;12.00;6.00;5.00
72854;PMS7003;60991;51.278;22.550;2023-01-15T08:30:30;9.33;6.00;5.00
72854;PMS7003;60991;51.278;22.550;2023-01-15T08:32:01;8.33;6.00;5.00
72854;PMS7003;60991;51.278;22.550;2023-01-15T08:33:31;7.33;7.33;5.00
72854;PMS7003;60991;51.278;22.550;2023-01-15T08:35:01;10.33;9.00;6.00
72854;PMS7003;60991;51.278;22.550;2023-01-15T08:36:31;7.25;4.25;2.25
72854;PMS7003;60991;51.278;22.550;2023-01-15T08:38:07;5.00;5.00;4.00
72854;PMS7003;60991;51.278;22.550;2023-01-15T08:39:38;7.25;5.50;5.00
72854;PMS7003;60991;51.278;22.550;2023-01-15T08:41:08;7.75;6.25;6.00
72854;PMS7003;60991;51.278;22.550;2023-01-15T08:42:38;4.75;4.75;4.50
72854;PMS7003;60991;51.278;22.550;2023-01-15T08:44:09;6.50;6.00;4.00
72854;PMS7003;60991;51.278;22.550;2023-01-15T08:45:39;8.75;6.00;4.00
72854;PMS7003;60991;51.278;22.550;2023-01-15T08:47:09;9.67;8.67;6.00
72854;PMS7003;60991;51.278;22.550;2023-01-15T08:48:40;7.33;6.00;5.00
72854;PMS7003;60991;51.278;22.550;2023-01-15T08:50:10;8.33;8.33;5.67
72854;PMS7003;60991;51.278;22.550;2023-01-15T08:51:40;9.00;6.75;4.50
72854;PMS7003;60991;51.278;22.550;2023-01-15T08:53:11;8.75;5.00;4.00
72854;PMS7003;60991;51.278;22.550;2023-01-15T08:54:41;10.00;7.00;6.67
72854;PMS7003;60991;51.278;22.550;2023-01-15T08:56:15;6.00;6.00;5.00